sensor_id;sensor_type;location;lat;lon;timestamp;pressure;altitude;pressure_sealevel;temperature
74533;BMP180;63012;51.096;-115.366;2023-05-29T00:00:47;86110.00;;;21.42
74533;BMP180;63012;51.096;-115.366;2023-05-29T00:03:14;86105.40;;;21.48
74533;BMP180;63012;51.096;-115.366;2023-05-29T00:05:41;86109.00;;;21.50
74533;BMP180;63012;51.096;-115.366;2023-05-29T00:08:08;86105.80;;;21.50
74533;BMP180;63012;51.096;-115.366;2023-05-29T00:10:35;86101.40;;;21.50
74533;BMP180;63012;51.096;-115.366;2023-05-29T00:13:04;86107.40;;;21.50
74533;BMP180;63012;51.096;-115.366;2023-05-29T00:15:31;86109.20;;;21.50
74533;BMP180;63012;51.096;-115.366;2023-05-29T00:17:58;86099.40;;;21.50
74533;BMP180;63012;51.096;-115.366;2023-05-29T00:20:25;86092.60;;;21.50
74533;BMP180;63012;51.096;-115.366;2023-05-29T00:22:52;86094.00;;;21.50
74533;BMP180;63012;51.096;-115.366;2023-05-29T00:25:20;86095.80;;;21.52
74533;BMP180;63012;51.096;-115.366;2023-05-29T00:27:47;86096.80;;;21.56
74533;BMP180;63012;51.096;-115.366;2023-05-29T00:30:13;86093.40;;;21.60
74533;BMP180;63012;51.096;-115.366;2023-05-29T00:32:41;86086.00;;;21.60
74533;BMP180;63012;51.096;-115.366;2023-05-29T00:35:08;86095.40;;;21.60
74533;BMP180;63012;51.096;-115.366;2023-05-29T00:37:36;86092.20;;;21.60
74533;BMP180;63012;51.096;-115.366;2023-05-29T00:40:04;86086.20;;;21.60
74533;BMP180;63012;51.096;-115.366;2023-05-29T00:42:31;86085.80;;;21.60
74533;BMP180;63012;51.096;-115.366;2023-05-29T00:44:58;86085.80;;;21.60
74533;BMP180;63012;51.096;-115.366;2023-05-29T00:47:26;86083.40;;;21.68
74533;BMP180;63012;51.096;-115.366;2023-05-29T00:49:55;86084.80;;;21.70
74533;BMP180;63012;51.096;-115.366;2023-05-29T00:52:26;86087.20;;;21.70
74533;BMP180;63012;51.096;-115.366;2023-05-29T00:54:54;86084.60;;;21.70
74533;BMP180;63012;51.096;-115.366;2023-05-29T00:57:23;86085.80;;;21.70
74533;BMP180;63012;51.096;-115.366;2023-05-29T00:59:51;86085.00;;;21.70
74533;BMP180;63012;51.096;-115.366;2023-05-29T01:02:18;86087.80;;;21.70
74533;BMP180;63012;51.096;-115.366;2023-05-29T01:04:47;86076.00;;;21.70
74533;BMP180;63012;51.096;-115.366;2023-05-29T01:07:15;86086.00;;;21.70
74533;BMP180;63012;51.096;-115.366;2023-05-29T01:09:42;86089.20;;;21.70
74533;BMP180;63012;51.096;-115.366;2023-05-29T01:15:44;86087.00;;;21.70
74533;BMP180;63012;51.096;-115.366;2023-05-29T01:19:07;86081.60;;;21.70
74533;BMP180;63012;51.096;-115.366;2023-05-29T01:21:56;86084.40;;;21.70
74533;BMP180;63012;51.096;-115.366;2023-05-29T01:24:44;86089.00;;;21.70
74533;BMP180;63012;51.096;-115.366;2023-05-29T01:27:17;86086.00;;;21.70
74533;BMP180;63012;51.096;-115.366;2023-05-29T01:29:47;86090.00;;;21.70
74533;BMP180;63012;51.096;-115.366;2023-05-29T01:32:16;86089.40;;;21.70
74533;BMP180;63012;51.096;-115.366;2023-05-29T01:34:43;86093.00;;;21.70
74533;BMP180;63012;51.096;-115.366;2023-05-29T01:37:10;86087.80;;;21.74
74533;BMP180;63012;51.096;-115.366;2023-05-29T01:39:37;86089.60;;;21.76
74533;BMP180;63012;51.096;-115.366;2023-05-29T01:42:06;86099.40;;;21.78
74533;BMP180;63012;51.096;-115.366;2023-05-29T01:44:34;86092.60;;;21.80
74533;BMP180;63012;51.096;-115.366;2023-05-29T01:47:02;86099.80;;;21.80
74533;BMP180;63012;51.096;-115.366;2023-05-29T01:49:31;86101.20;;;21.80
74533;BMP180;63012;51.096;-115.366;2023-05-29T01:51:59;86111.20;;;21.80
74533;BMP180;63012;51.096;-115.366;2023-05-29T01:54:26;86108.80;;;21.80
74533;BMP180;63012;51.096;-115.366;2023-05-29T01:56:54;86106.80;;;21.80
74533;BMP180;63012;51.096;-115.366;2023-05-29T01:59:22;86107.00;;;21.80
74533;BMP180;63012;51.096;-115.366;2023-05-29T02:01:49;86107.00;;;21.80
74533;BMP180;63012;51.096;-115.366;2023-05-29T02:04:16;86115.00;;;21.80
74533;BMP180;63012;51.096;-115.366;2023-05-29T02:06:43;86113.80;;;21.80
74533;BMP180;63012;51.096;-115.366;2023-05-29T02:09:10;86120.60;;;21.80
74533;BMP180;63012;51.096;-115.366;2023-05-29T02:11:37;86117.60;;;21.80
74533;BMP180;63012;51.096;-115.366;2023-05-29T02:14:04;86116.20;;;21.80
74533;BMP180;63012;51.096;-115.366;2023-05-29T02:16:31;86120.20;;;21.80
74533;BMP180;63012;51.096;-115.366;2023-05-29T02:19:01;86123.20;;;21.80
74533;BMP180;63012;51.096;-115.366;2023-05-29T02:21:28;86126.20;;;21.80
74533;BMP180;63012;51.096;-115.366;2023-05-29T02:23:55;86127.00;;;21.80
74533;BMP180;63012;51.096;-115.366;2023-05-29T02:26:23;86131.20;;;21.80
74533;BMP180;63012;51.096;-115.366;2023-05-29T02:28:49;86127.80;;;21.80
74533;BMP180;63012;51.096;-115.366;2023-05-29T02:31:17;86133.20;;;21.80
74533;BMP180;63012;51.096;-115.366;2023-05-29T02:33:44;86128.40;;;21.80
74533;BMP180;63012;51.096;-115.366;2023-05-29T02:36:11;86133.80;;;21.80
74533;BMP180;63012;51.096;-115.366;2023-05-29T02:38:38;86134.40;;;21.80
74533;BMP180;63012;51.096;-115.366;2023-05-29T02:41:05;86138.20;;;21.80
74533;BMP180;63012;51.096;-115.366;2023-05-29T02:43:32;86143.80;;;21.80
74533;BMP180;63012;51.096;-115.366;2023-05-29T02:45:59;86145.40;;;21.80
74533;BMP180;63012;51.096;-115.366;2023-05-29T02:48:26;86142.40;;;21.80
74533;BMP180;63012;51.096;-115.366;2023-05-29T02:50:53;86141.60;;;21.80
74533;BMP180;63012;51.096;-115.366;2023-05-29T02:53:20;86153.80;;;21.80
74533;BMP180;63012;51.096;-115.366;2023-05-29T02:55:48;86150.80;;;21.80
74533;BMP180;63012;51.096;-115.366;2023-05-29T02:58:15;86159.60;;;21.82
74533;BMP180;63012;51.096;-115.366;2023-05-29T03:00:42;86156.40;;;21.80
74533;BMP180;63012;51.096;-115.366;2023-05-29T03:03:10;86158.40;;;21.80
74533;BMP180;63012;51.096;-115.366;2023-05-29T03:05:37;86163.20;;;21.80
74533;BMP180;63012;51.096;-115.366;2023-05-29T03:08:04;86167.20;;;21.80
74533;BMP180;63012;51.096;-115.366;2023-05-29T03:10:31;86161.80;;;21.80
74533;BMP180;63012;51.096;-115.366;2023-05-29T03:12:58;86169.40;;;21.80
74533;BMP180;63012;51.096;-115.366;2023-05-29T03:15:25;86168.20;;;21.80
74533;BMP180;63012;51.096;-115.366;2023-05-29T03:17:52;86167.20;;;21.80
74533;BMP180;63012;51.096;-115.366;2023-05-29T03:20:19;86172.60;;;21.80
74533;BMP180;63012;51.096;-115.366;2023-05-29T03:22:46;86185.00;;;21.80
74533;BMP180;63012;51.096;-115.366;2023-05-29T03:25:13;86187.60;;;21.80
74533;BMP180;63012;51.096;-115.366;2023-05-29T03:27:40;86192.20;;;21.80
74533;BMP180;63012;51.096;-115.366;2023-05-29T03:30:08;86200.00;;;21.80
74533;BMP180;63012;51.096;-115.366;2023-05-29T03:32:36;86202.80;;;21.80
74533;BMP180;63012;51.096;-115.366;2023-05-29T03:35:03;86206.00;;;21.80
74533;BMP180;63012;51.096;-115.366;2023-05-29T03:37:30;86214.00;;;21.80
74533;BMP180;63012;51.096;-115.366;2023-05-29T03:39:57;86214.20;;;21.80
74533;BMP180;63012;51.096;-115.366;2023-05-29T03:42:24;86220.60;;;21.80
74533;BMP180;63012;51.096;-115.366;2023-05-29T03:44:52;86222.80;;;21.80
74533;BMP180;63012;51.096;-115.366;2023-05-29T03:47:18;86227.20;;;21.80
74533;BMP180;63012;51.096;-115.366;2023-05-29T03:49:47;86230.20;;;21.80
74533;BMP180;63012;51.096;-115.366;2023-05-29T03:52:14;86235.60;;;21.80
74533;BMP180;63012;51.096;-115.366;2023-05-29T03:54:41;86231.80;;;21.80
74533;BMP180;63012;51.096;-115.366;2023-05-29T03:57:08;86238.40;;;21.80
74533;BMP180;63012;51.096;-115.366;2023-05-29T03:59:36;86240.00;;;21.80
74533;BMP180;63012;51.096;-115.366;2023-05-29T04:02:03;86248.20;;;21.80
74533;BMP180;63012;51.096;-115.366;2023-05-29T04:04:30;86251.20;;;21.80
74533;BMP180;63012;51.096;-115.366;2023-05-29T04:06:57;86253.20;;;21.80
74533;BMP180;63012;51.096;-115.366;2023-05-29T04:09:24;86251.80;;;21.78
74533;BMP180;63012;51.096;-115.366;2023-05-29T04:11:51;86259.00;;;21.80
74533;BMP180;63012;51.096;-115.366;2023-05-29T04:14:18;86261.80;;;21.76
74533;BMP180;63012;51.096;-115.366;2023-05-29T04:16:46;86261.40;;;21.72
74533;BMP180;63012;51.096;-115.366;2023-05-29T04:19:12;86264.80;;;21.70
74533;BMP180;63012;51.096;-115.366;2023-05-29T04:21:40;86261.60;;;21.72
74533;BMP180;63012;51.096;-115.366;2023-05-29T04:24:07;86267.00;;;21.72
74533;BMP180;63012;51.096;-115.366;2023-05-29T04:26:34;86261.60;;;21.70
74533;BMP180;63012;51.096;-115.366;2023-05-29T04:29:01;86267.40;;;21.70
74533;BMP180;63012;51.096;-115.366;2023-05-29T04:31:28;86271.80;;;21.70
74533;BMP180;63012;51.096;-115.366;2023-05-29T04:33:56;86277.20;;;21.70
74533;BMP180;63012;51.096;-115.366;2023-05-29T04:36:27;86272.40;;;21.70
74533;BMP180;63012;51.096;-115.366;2023-05-29T04:38:54;86273.60;;;21.70
74533;BMP180;63012;51.096;-115.366;2023-05-29T04:41:21;86273.80;;;21.74
74533;BMP180;63012;51.096;-115.366;2023-05-29T04:43:50;86286.00;;;21.76
74533;BMP180;63012;51.096;-115.366;2023-05-29T04:46:17;86287.00;;;21.80
74533;BMP180;63012;51.096;-115.366;2023-05-29T04:48:45;86290.80;;;21.76
74533;BMP180;63012;51.096;-115.366;2023-05-29T04:51:12;86292.00;;;21.80
74533;BMP180;63012;51.096;-115.366;2023-05-29T04:53:40;86290.20;;;21.76
74533;BMP180;63012;51.096;-115.366;2023-05-29T04:56:08;86289.80;;;21.74
74533;BMP180;63012;51.096;-115.366;2023-05-29T04:58:36;86289.40;;;21.78
74533;BMP180;63012;51.096;-115.366;2023-05-29T05:01:03;86297.60;;;21.80
74533;BMP180;63012;51.096;-115.366;2023-05-29T05:03:30;86298.00;;;21.80
74533;BMP180;63012;51.096;-115.366;2023-05-29T05:06:03;86301.00;;;21.80
74533;BMP180;63012;51.096;-115.366;2023-05-29T05:08:32;86307.00;;;21.80
74533;BMP180;63012;51.096;-115.366;2023-05-29T05:11:01;86300.40;;;21.78
74533;BMP180;63012;51.096;-115.366;2023-05-29T05:13:28;86304.80;;;21.80
74533;BMP180;63012;51.096;-115.366;2023-05-29T05:15:56;86315.00;;;21.80
74533;BMP180;63012;51.096;-115.366;2023-05-29T05:18:22;86314.80;;;21.80
74533;BMP180;63012;51.096;-115.366;2023-05-29T05:20:50;86317.00;;;21.80
74533;BMP180;63012;51.096;-115.366;2023-05-29T05:23:17;86318.80;;;21.80
74533;BMP180;63012;51.096;-115.366;2023-05-29T05:25:44;86323.00;;;21.80
74533;BMP180;63012;51.096;-115.366;2023-05-29T05:28:11;86329.60;;;21.80
74533;BMP180;63012;51.096;-115.366;2023-05-29T05:30:39;86329.00;;;21.80
74533;BMP180;63012;51.096;-115.366;2023-05-29T05:33:07;86330.40;;;21.80
74533;BMP180;63012;51.096;-115.366;2023-05-29T05:35:33;86328.60;;;21.80
74533;BMP180;63012;51.096;-115.366;2023-05-29T05:38:00;86332.00;;;21.80
74533;BMP180;63012;51.096;-115.366;2023-05-29T05:40:27;86333.00;;;21.80
74533;BMP180;63012;51.096;-115.366;2023-05-29T05:42:54;86335.80;;;21.80
74533;BMP180;63012;51.096;-115.366;2023-05-29T05:45:21;86337.00;;;21.80
74533;BMP180;63012;51.096;-115.366;2023-05-29T05:47:48;86338.00;;;21.80
74533;BMP180;63012;51.096;-115.366;2023-05-29T05:50:15;86338.00;;;21.80
74533;BMP180;63012;51.096;-115.366;2023-05-29T05:52:43;86339.00;;;21.80
74533;BMP180;63012;51.096;-115.366;2023-05-29T05:55:10;86344.00;;;21.74
74533;BMP180;63012;51.096;-115.366;2023-05-29T05:57:37;86346.40;;;21.70
74533;BMP180;63012;51.096;-115.366;2023-05-29T06:00:05;86347.20;;;21.70
74533;BMP180;63012;51.096;-115.366;2023-05-29T06:02:39;86347.80;;;21.70
74533;BMP180;63012;51.096;-115.366;2023-05-29T06:05:11;86345.40;;;21.70
74533;BMP180;63012;51.096;-115.366;2023-05-29T06:07:38;86345.20;;;21.70
74533;BMP180;63012;51.096;-115.366;2023-05-29T06:10:06;86350.60;;;21.70
74533;BMP180;63012;51.096;-115.366;2023-05-29T06:12:34;86352.80;;;21.70
74533;BMP180;63012;51.096;-115.366;2023-05-29T06:15:01;86358.80;;;21.70
74533;BMP180;63012;51.096;-115.366;2023-05-29T06:17:30;86349.20;;;21.70
74533;BMP180;63012;51.096;-115.366;2023-05-29T06:19:58;86350.20;;;21.70
74533;BMP180;63012;51.096;-115.366;2023-05-29T06:22:25;86353.60;;;21.70
74533;BMP180;63012;51.096;-115.366;2023-05-29T06:24:52;86355.00;;;21.70
74533;BMP180;63012;51.096;-115.366;2023-05-29T06:27:20;86354.60;;;21.70
74533;BMP180;63012;51.096;-115.366;2023-05-29T06:29:50;86356.80;;;21.70
74533;BMP180;63012;51.096;-115.366;2023-05-29T06:32:17;86348.80;;;21.70
74533;BMP180;63012;51.096;-115.366;2023-05-29T06:34:44;86359.60;;;21.70
74533;BMP180;63012;51.096;-115.366;2023-05-29T06:37:12;86353.00;;;21.62
74533;BMP180;63012;51.096;-115.366;2023-05-29T06:39:39;86351.60;;;21.60
74533;BMP180;63012;51.096;-115.366;2023-05-29T06:42:08;86348.40;;;21.60
74533;BMP180;63012;51.096;-115.366;2023-05-29T06:44:36;86347.80;;;21.60
74533;BMP180;63012;51.096;-115.366;2023-05-29T06:47:05;86349.80;;;21.60
74533;BMP180;63012;51.096;-115.366;2023-05-29T06:49:32;86357.80;;;21.60
74533;BMP180;63012;51.096;-115.366;2023-05-29T06:51:59;86351.00;;;21.60
74533;BMP180;63012;51.096;-115.366;2023-05-29T06:54:26;86349.20;;;21.60
74533;BMP180;63012;51.096;-115.366;2023-05-29T06:56:54;86345.80;;;21.60
74533;BMP180;63012;51.096;-115.366;2023-05-29T06:59:21;86345.40;;;21.60
74533;BMP180;63012;51.096;-115.366;2023-05-29T07:01:48;86346.60;;;21.60
74533;BMP180;63012;51.096;-115.366;2023-05-29T07:04:15;86347.40;;;21.60
74533;BMP180;63012;51.096;-115.366;2023-05-29T07:06:42;86348.40;;;21.60
74533;BMP180;63012;51.096;-115.366;2023-05-29T07:09:09;86348.40;;;21.60
74533;BMP180;63012;51.096;-115.366;2023-05-29T07:11:37;86351.80;;;21.60
74533;BMP180;63012;51.096;-115.366;2023-05-29T07:14:05;86350.00;;;21.60
74533;BMP180;63012;51.096;-115.366;2023-05-29T07:16:32;86347.00;;;21.60
74533;BMP180;63012;51.096;-115.366;2023-05-29T07:18:59;86349.60;;;21.60
74533;BMP180;63012;51.096;-115.366;2023-05-29T07:21:26;86350.40;;;21.60
74533;BMP180;63012;51.096;-115.366;2023-05-29T07:23:53;86349.20;;;21.60
74533;BMP180;63012;51.096;-115.366;2023-05-29T07:26:20;86347.40;;;21.60
74533;BMP180;63012;51.096;-115.366;2023-05-29T07:28:49;86348.20;;;21.60
74533;BMP180;63012;51.096;-115.366;2023-05-29T07:31:16;86347.80;;;21.60
74533;BMP180;63012;51.096;-115.366;2023-05-29T07:33:44;86351.00;;;21.60
74533;BMP180;63012;51.096;-115.366;2023-05-29T07:36:11;86347.60;;;21.60
74533;BMP180;63012;51.096;-115.366;2023-05-29T07:38:39;86349.00;;;21.60
74533;BMP180;63012;51.096;-115.366;2023-05-29T07:41:06;86349.40;;;21.60
74533;BMP180;63012;51.096;-115.366;2023-05-29T07:43:33;86350.80;;;21.60
74533;BMP180;63012;51.096;-115.366;2023-05-29T07:46:01;86353.60;;;21.60
74533;BMP180;63012;51.096;-115.366;2023-05-29T07:48:28;86349.20;;;21.60
74533;BMP180;63012;51.096;-115.366;2023-05-29T07:50:55;86351.00;;;21.60
74533;BMP180;63012;51.096;-115.366;2023-05-29T07:53:22;86352.80;;;21.60
74533;BMP180;63012;51.096;-115.366;2023-05-29T07:55:49;86351.20;;;21.60
74533;BMP180;63012;51.096;-115.366;2023-05-29T07:58:16;86357.00;;;21.60
74533;BMP180;63012;51.096;-115.366;2023-05-29T08:00:44;86352.20;;;21.60
74533;BMP180;63012;51.096;-115.366;2023-05-29T08:03:11;86350.00;;;21.60
74533;BMP180;63012;51.096;-115.366;2023-05-29T08:05:38;86351.80;;;21.60
74533;BMP180;63012;51.096;-115.366;2023-05-29T08:08:06;86349.00;;;21.58
74533;BMP180;63012;51.096;-115.366;2023-05-29T08:10:33;86352.00;;;21.58
74533;BMP180;63012;51.096;-115.366;2023-05-29T08:13:00;86357.40;;;21.54
74533;BMP180;63012;51.096;-115.366;2023-05-29T08:15:27;86355.20;;;21.50
74533;BMP180;63012;51.096;-115.366;2023-05-29T08:17:54;86359.40;;;21.50
74533;BMP180;63012;51.096;-115.366;2023-05-29T08:20:21;86355.40;;;21.50
74533;BMP180;63012;51.096;-115.366;2023-05-29T08:22:48;86357.80;;;21.50
74533;BMP180;63012;51.096;-115.366;2023-05-29T08:25:16;86355.40;;;21.50
74533;BMP180;63012;51.096;-115.366;2023-05-29T08:27:43;86353.80;;;21.50
74533;BMP180;63012;51.096;-115.366;2023-05-29T08:30:11;86352.60;;;21.50
74533;BMP180;63012;51.096;-115.366;2023-05-29T08:32:38;86357.00;;;21.50
74533;BMP180;63012;51.096;-115.366;2023-05-29T08:35:05;86356.00;;;21.50
74533;BMP180;63012;51.096;-115.366;2023-05-29T08:37:32;86359.20;;;21.50
74533;BMP180;63012;51.096;-115.366;2023-05-29T08:40:00;86354.20;;;21.50
74533;BMP180;63012;51.096;-115.366;2023-05-29T08:42:54;86354.80;;;21.50
74533;BMP180;63012;51.096;-115.366;2023-05-29T08:45:25;86364.40;;;21.50
74533;BMP180;63012;51.096;-115.366;2023-05-29T08:47:53;86360.80;;;21.44
74533;BMP180;63012;51.096;-115.366;2023-05-29T08:50:21;86362.00;;;21.46
74533;BMP180;63012;51.096;-115.366;2023-05-29T08:52:50;86359.60;;;21.42
74533;BMP180;63012;51.096;-115.366;2023-05-29T08:55:18;86358.60;;;21.40
74533;BMP180;63012;51.096;-115.366;2023-05-29T08:57:45;86355.40;;;21.40
74533;BMP180;63012;51.096;-115.366;2023-05-29T09:00:13;86348.80;;;21.40
74533;BMP180;63012;51.096;-115.366;2023-05-29T09:02:42;86358.20;;;21.40
74533;BMP180;63012;51.096;-115.366;2023-05-29T09:05:10;86354.60;;;21.40
74533;BMP180;63012;51.096;-115.366;2023-05-29T09:07:40;86353.60;;;21.40
74533;BMP180;63012;51.096;-115.366;2023-05-29T09:10:09;86346.00;;;21.40
74533;BMP180;63012;51.096;-115.366;2023-05-29T09:12:36;86353.00;;;21.40
74533;BMP180;63012;51.096;-115.366;2023-05-29T09:15:18;86351.00;;;21.40
74533;BMP180;63012;51.096;-115.366;2023-05-29T09:17:56;86348.20;;;21.34
74533;BMP180;63012;51.096;-115.366;2023-05-29T09:20:25;86348.40;;;21.30
74533;BMP180;63012;51.096;-115.366;2023-05-29T09:23:00;86349.60;;;21.30
74533;BMP180;63012;51.096;-115.366;2023-05-29T09:25:30;86352.20;;;21.30
74533;BMP180;63012;51.096;-115.366;2023-05-29T09:28:04;86348.80;;;21.30
74533;BMP180;63012;51.096;-115.366;2023-05-29T09:30:45;86352.40;;;21.30
74533;BMP180;63012;51.096;-115.366;2023-05-29T09:33:16;86353.80;;;21.30
74533;BMP180;63012;51.096;-115.366;2023-05-29T09:35:48;86347.20;;;21.30
74533;BMP180;63012;51.096;-115.366;2023-05-29T09:38:19;86350.40;;;21.30
74533;BMP180;63012;51.096;-115.366;2023-05-29T09:40:46;86351.00;;;21.28
74533;BMP180;63012;51.096;-115.366;2023-05-29T09:43:18;86345.40;;;21.20
74533;BMP180;63012;51.096;-115.366;2023-05-29T09:45:50;86345.80;;;21.20
74533;BMP180;63012;51.096;-115.366;2023-05-29T09:48:22;86343.40;;;21.20
74533;BMP180;63012;51.096;-115.366;2023-05-29T09:50:50;86345.20;;;21.20
74533;BMP180;63012;51.096;-115.366;2023-05-29T09:53:20;86347.40;;;21.20
74533;BMP180;63012;51.096;-115.366;2023-05-29T09:55:48;86350.80;;;21.20
74533;BMP180;63012;51.096;-115.366;2023-05-29T09:58:20;86343.20;;;21.14
74533;BMP180;63012;51.096;-115.366;2023-05-29T10:00:49;86346.00;;;21.10
74533;BMP180;63012;51.096;-115.366;2023-05-29T10:03:18;86351.60;;;21.10
74533;BMP180;63012;51.096;-115.366;2023-05-29T10:05:54;86350.60;;;21.10
74533;BMP180;63012;51.096;-115.366;2023-05-29T10:08:23;86351.40;;;21.10
74533;BMP180;63012;51.096;-115.366;2023-05-29T10:10:59;86354.60;;;21.10
74533;BMP180;63012;51.096;-115.366;2023-05-29T10:13:36;86351.40;;;21.10
74533;BMP180;63012;51.096;-115.366;2023-05-29T10:16:11;86351.00;;;21.10
74533;BMP180;63012;51.096;-115.366;2023-05-29T10:18:57;86346.20;;;21.06
74533;BMP180;63012;51.096;-115.366;2023-05-29T10:21:28;86343.80;;;21.00
74533;BMP180;63012;51.096;-115.366;2023-05-29T10:23:57;86351.40;;;21.00
74533;BMP180;63012;51.096;-115.366;2023-05-29T10:26:28;86344.20;;;21.00
74533;BMP180;63012;51.096;-115.366;2023-05-29T10:29:29;86343.00;;;21.00
74533;BMP180;63012;51.096;-115.366;2023-05-29T10:35:16;86348.60;;;21.00
74533;BMP180;63012;51.096;-115.366;2023-05-29T10:38:01;86340.60;;;20.98
74533;BMP180;63012;51.096;-115.366;2023-05-29T10:40:29;86345.40;;;20.92
74533;BMP180;63012;51.096;-115.366;2023-05-29T10:42:56;86342.00;;;20.90
74533;BMP180;63012;51.096;-115.366;2023-05-29T10:50:47;86350.80;;;20.90
74533;BMP180;63012;51.096;-115.366;2023-05-29T10:53:23;86352.60;;;20.80
74533;BMP180;63012;51.096;-115.366;2023-05-29T10:55:52;86356.80;;;20.80
74533;BMP180;63012;51.096;-115.366;2023-05-29T10:58:22;86355.00;;;20.80
74533;BMP180;63012;51.096;-115.366;2023-05-29T11:00:54;86352.20;;;20.80
74533;BMP180;63012;51.096;-115.366;2023-05-29T11:03:33;86352.20;;;20.80
74533;BMP180;63012;51.096;-115.366;2023-05-29T11:06:06;86352.80;;;20.80
74533;BMP180;63012;51.096;-115.366;2023-05-29T11:08:54;86348.00;;;20.74
74533;BMP180;63012;51.096;-115.366;2023-05-29T11:14:07;86350.80;;;20.70
74533;BMP180;63012;51.096;-115.366;2023-05-29T11:19:08;86358.20;;;20.70
74533;BMP180;63012;51.096;-115.366;2023-05-29T11:21:58;86369.60;;;20.70
74533;BMP180;63012;51.096;-115.366;2023-05-29T11:24:28;86370.80;;;20.64
74533;BMP180;63012;51.096;-115.366;2023-05-29T11:26:57;86376.40;;;20.60
74533;BMP180;63012;51.096;-115.366;2023-05-29T11:29:33;86376.00;;;20.60
74533;BMP180;63012;51.096;-115.366;2023-05-29T11:32:06;86368.60;;;20.60
74533;BMP180;63012;51.096;-115.366;2023-05-29T11:34:41;86371.00;;;20.60
74533;BMP180;63012;51.096;-115.366;2023-05-29T11:37:08;86375.40;;;20.60
74533;BMP180;63012;51.096;-115.366;2023-05-29T11:39:38;86373.80;;;20.60
74533;BMP180;63012;51.096;-115.366;2023-05-29T11:42:07;86373.00;;;20.50
74533;BMP180;63012;51.096;-115.366;2023-05-29T11:44:34;86364.40;;;20.50
74533;BMP180;63012;51.096;-115.366;2023-05-29T11:47:07;86374.00;;;20.50
74533;BMP180;63012;51.096;-115.366;2023-05-29T11:49:36;86371.00;;;20.50
74533;BMP180;63012;51.096;-115.366;2023-05-29T11:52:14;86372.60;;;20.50
74533;BMP180;63012;51.096;-115.366;2023-05-29T11:54:41;86370.60;;;20.50
74533;BMP180;63012;51.096;-115.366;2023-05-29T11:57:22;86376.60;;;20.50
74533;BMP180;63012;51.096;-115.366;2023-05-29T11:59:53;86378.20;;;20.46
74533;BMP180;63012;51.096;-115.366;2023-05-29T12:02:25;86387.40;;;20.42
74533;BMP180;63012;51.096;-115.366;2023-05-29T12:05:04;86386.20;;;20.40
74533;BMP180;63012;51.096;-115.366;2023-05-29T12:07:33;86384.60;;;20.40
74533;BMP180;63012;51.096;-115.366;2023-05-29T12:10:16;86385.60;;;20.40
74533;BMP180;63012;51.096;-115.366;2023-05-29T12:12:49;86383.80;;;20.40
74533;BMP180;63012;51.096;-115.366;2023-05-29T12:15:18;86383.00;;;20.40
74533;BMP180;63012;51.096;-115.366;2023-05-29T12:17:53;86380.80;;;20.32
74533;BMP180;63012;51.096;-115.366;2023-05-29T12:20:24;86385.40;;;20.30
74533;BMP180;63012;51.096;-115.366;2023-05-29T12:22:59;86385.20;;;20.30
74533;BMP180;63012;51.096;-115.366;2023-05-29T12:25:27;86387.40;;;20.30
74533;BMP180;63012;51.096;-115.366;2023-05-29T12:27:57;86388.00;;;20.30
74533;BMP180;63012;51.096;-115.366;2023-05-29T12:30:25;86384.60;;;20.30
74533;BMP180;63012;51.096;-115.366;2023-05-29T12:32:53;86378.80;;;20.28
74533;BMP180;63012;51.096;-115.366;2023-05-29T12:35:23;86381.40;;;20.24
74533;BMP180;63012;51.096;-115.366;2023-05-29T12:37:59;86385.60;;;20.20
74533;BMP180;63012;51.096;-115.366;2023-05-29T12:40:32;86389.40;;;20.20
74533;BMP180;63012;51.096;-115.366;2023-05-29T12:43:09;86382.20;;;20.20
74533;BMP180;63012;51.096;-115.366;2023-05-29T12:45:36;86379.00;;;20.20
74533;BMP180;63012;51.096;-115.366;2023-05-29T12:48:07;86376.80;;;20.20
74533;BMP180;63012;51.096;-115.366;2023-05-29T12:50:40;86374.20;;;20.20
74533;BMP180;63012;51.096;-115.366;2023-05-29T12:53:14;86369.60;;;20.20
74533;BMP180;63012;51.096;-115.366;2023-05-29T12:55:44;86374.00;;;20.20
74533;BMP180;63012;51.096;-115.366;2023-05-29T12:58:14;86373.80;;;20.20
74533;BMP180;63012;51.096;-115.366;2023-05-29T13:00:47;86368.00;;;20.20
74533;BMP180;63012;51.096;-115.366;2023-05-29T13:03:14;86369.80;;;20.16
74533;BMP180;63012;51.096;-115.366;2023-05-29T13:05:41;86372.00;;;20.20
74533;BMP180;63012;51.096;-115.366;2023-05-29T13:08:08;86372.60;;;20.10
74533;BMP180;63012;51.096;-115.366;2023-05-29T13:10:36;86378.20;;;20.10
74533;BMP180;63012;51.096;-115.366;2023-05-29T13:13:03;86384.60;;;20.10
74533;BMP180;63012;51.096;-115.366;2023-05-29T13:15:29;86383.00;;;20.10
74533;BMP180;63012;51.096;-115.366;2023-05-29T13:17:59;86379.80;;;20.10
74533;BMP180;63012;51.096;-115.366;2023-05-29T13:20:26;86381.80;;;20.10
74533;BMP180;63012;51.096;-115.366;2023-05-29T13:22:53;86380.40;;;20.10
74533;BMP180;63012;51.096;-115.366;2023-05-29T13:25:20;86386.60;;;20.10
74533;BMP180;63012;51.096;-115.366;2023-05-29T13:27:50;86391.20;;;20.10
74533;BMP180;63012;51.096;-115.366;2023-05-29T13:30:17;86388.20;;;20.10
74533;BMP180;63012;51.096;-115.366;2023-05-29T13:32:44;86385.80;;;20.10
74533;BMP180;63012;51.096;-115.366;2023-05-29T13:35:11;86382.00;;;20.10
74533;BMP180;63012;51.096;-115.366;2023-05-29T13:37:39;86385.00;;;20.10
74533;BMP180;63012;51.096;-115.366;2023-05-29T13:40:07;86383.20;;;20.10
74533;BMP180;63012;51.096;-115.366;2023-05-29T13:42:40;86383.20;;;20.10
74533;BMP180;63012;51.096;-115.366;2023-05-29T13:45:08;86381.60;;;20.08
74533;BMP180;63012;51.096;-115.366;2023-05-29T13:47:36;86378.80;;;20.08
74533;BMP180;63012;51.096;-115.366;2023-05-29T13:50:04;86370.60;;;20.06
74533;BMP180;63012;51.096;-115.366;2023-05-29T13:52:33;86375.60;;;20.08
74533;BMP180;63012;51.096;-115.366;2023-05-29T13:55:00;86374.00;;;20.04
74533;BMP180;63012;51.096;-115.366;2023-05-29T13:57:33;86381.20;;;20.02
74533;BMP180;63012;51.096;-115.366;2023-05-29T14:00:00;86383.20;;;20.08